sensor_id;sensor_type;location;lat;lon;timestamp;P1;durP1;ratioP1;P2;durP2;ratioP2
3121;SDS011;1571;52.524;14.104;2023-04-15T00:01:16;61.87;;;35.50;;
3121;SDS011;1571;52.524;14.104;2023-04-15T00:03:45;68.50;;;41.93;;
3121;SDS011;1571;52.524;14.104;2023-04-15T00:06:14;59.67;;;39.67;;
3121;SDS011;1571;52.524;14.104;2023-04-15T00:08:42;65.60;;;37.37;;
3121;SDS011;1571;52.524;14.104;2023-04-15T00:11:11;67.20;;;40.37;;
3121;SDS011;1571;52.524;14.104;2023-04-15T00:13:39;59.20;;;36.07;;
3121;SDS011;1571;52.524;14.104;2023-04-15T00:16:08;60.53;;;36.53;;
3121;SDS011;1571;52.524;14.104;2023-04-15T00:18:39;64.57;;;38.30;;
3121;SDS011;1571;52.524;14.104;2023-04-15T00:21:08;58.40;;;38.13;;
3121;SDS011;1571;52.524;14.104;2023-04-15T00:23:36;70.93;;;39.33;;
3121;SDS011;1571;52.524;14.104;2023-04-15T00:26:04;66.17;;;36.27;;
3121;SDS011;1571;52.524;14.104;2023-04-15T00:28:33;53.13;;;34.97;;
3121;SDS011;1571;52.524;14.104;2023-04-15T00:31:02;64.60;;;39.40;;
3121;SDS011;1571;52.524;14.104;2023-04-15T00:33:30;64.10;;;39.10;;
3121;SDS011;1571;52.524;14.104;2023-04-15T00:36:00;62.53;;;35.37;;
3121;SDS011;1571;52.524;14.104;2023-04-15T00:38:28;59.83;;;36.90;;
3121;SDS011;1571;52.524;14.104;2023-04-15T00:40:56;69.27;;;36.57;;
3121;SDS011;1571;52.524;14.104;2023-04-15T00:43:26;57.67;;;36.57;;
3121;SDS011;1571;52.524;14.104;2023-04-15T00:45:55;58.03;;;38.50;;
3121;SDS011;1571;52.524;14.104;2023-04-15T00:48:26;60.60;;;36.60;;
3121;SDS011;1571;52.524;14.104;2023-04-15T00:50:54;56.93;;;34.57;;
3121;SDS011;1571;52.524;14.104;2023-04-15T00:53:23;53.20;;;34.23;;
3121;SDS011;1571;52.524;14.104;2023-04-15T00:55:52;58.93;;;36.80;;
3121;SDS011;1571;52.524;14.104;2023-04-15T00:58:21;49.50;;;34.03;;
3121;SDS011;1571;52.524;14.104;2023-04-15T01:00:49;57.53;;;33.23;;
3121;SDS011;1571;52.524;14.104;2023-04-15T01:03:20;56.67;;;36.83;;
3121;SDS011;1571;52.524;14.104;2023-04-15T01:05:49;49.70;;;35.23;;
3121;SDS011;1571;52.524;14.104;2023-04-15T01:08:18;54.53;;;35.47;;
3121;SDS011;1571;52.524;14.104;2023-04-15T01:10:48;55.47;;;32.67;;
3121;SDS011;1571;52.524;14.104;2023-04-15T01:13:16;50.80;;;32.67;;
3121;SDS011;1571;52.524;14.104;2023-04-15T01:15:44;53.10;;;31.30;;
3121;SDS011;1571;52.524;14.104;2023-04-15T01:18:13;53.00;;;32.90;;
3121;SDS011;1571;52.524;14.104;2023-04-15T01:20:41;49.43;;;31.30;;
3121;SDS011;1571;52.524;14.104;2023-04-15T01:23:09;50.73;;;34.00;;
3121;SDS011;1571;52.524;14.104;2023-04-15T01:25:39;50.77;;;32.87;;
3121;SDS011;1571;52.524;14.104;2023-04-15T01:28:08;50.83;;;32.37;;
3121;SDS011;1571;52.524;14.104;2023-04-15T01:30:37;53.30;;;31.27;;
3121;SDS011;1571;52.524;14.104;2023-04-15T01:33:05;47.77;;;29.07;;
3121;SDS011;1571;52.524;14.104;2023-04-15T01:35:33;46.50;;;29.27;;
3121;SDS011;1571;52.524;14.104;2023-04-15T01:38:02;51.30;;;31.10;;
3121;SDS011;1571;52.524;14.104;2023-04-15T01:40:33;46.70;;;31.57;;
3121;SDS011;1571;52.524;14.104;2023-04-15T01:43:03;53.53;;;31.33;;
3121;SDS011;1571;52.524;14.104;2023-04-15T01:45:31;44.10;;;30.27;;
3121;SDS011;1571;52.524;14.104;2023-04-15T01:48:03;37.90;;;28.30;;
3121;SDS011;1571;52.524;14.104;2023-04-15T01:50:31;46.70;;;30.70;;
3121;SDS011;1571;52.524;14.104;2023-04-15T01:52:59;42.47;;;30.27;;
3121;SDS011;1571;52.524;14.104;2023-04-15T01:55:28;43.77;;;31.70;;
3121;SDS011;1571;52.524;14.104;2023-04-15T01:57:56;47.90;;;29.87;;
3121;SDS011;1571;52.524;14.104;2023-04-15T02:00:26;44.80;;;30.93;;
3121;SDS011;1571;52.524;14.104;2023-04-15T02:02:54;46.83;;;29.33;;
3121;SDS011;1571;52.524;14.104;2023-04-15T02:05:24;41.43;;;28.10;;
3121;SDS011;1571;52.524;14.104;2023-04-15T02:07:53;40.27;;;29.50;;
3121;SDS011;1571;52.524;14.104;2023-04-15T02:10:21;43.90;;;29.37;;
3121;SDS011;1571;52.524;14.104;2023-04-15T02:12:50;49.67;;;29.60;;
3121;SDS011;1571;52.524;14.104;2023-04-15T02:15:18;46.47;;;30.17;;
3121;SDS011;1571;52.524;14.104;2023-04-15T02:17:50;43.77;;;27.20;;
3121;SDS011;1571;52.524;14.104;2023-04-15T02:20:21;43.60;;;29.30;;
3121;SDS011;1571;52.524;14.104;2023-04-15T02:22:49;40.80;;;27.43;;
3121;SDS011;1571;52.524;14.104;2023-04-15T02:25:18;45.10;;;29.80;;
3121;SDS011;1571;52.524;14.104;2023-04-15T02:27:46;40.47;;;29.37;;
3121;SDS011;1571;52.524;14.104;2023-04-15T02:30:16;35.87;;;27.47;;
3121;SDS011;1571;52.524;14.104;2023-04-15T02:32:44;45.17;;;29.60;;
3121;SDS011;1571;52.524;14.104;2023-04-15T02:35:14;39.97;;;27.80;;
3121;SDS011;1571;52.524;14.104;2023-04-15T02:37:44;38.30;;;27.20;;
3121;SDS011;1571;52.524;14.104;2023-04-15T02:40:13;42.17;;;30.17;;
3121;SDS011;1571;52.524;14.104;2023-04-15T02:42:41;47.20;;;31.77;;
3121;SDS011;1571;52.524;14.104;2023-04-15T02:45:12;39.80;;;28.77;;
3121;SDS011;1571;52.524;14.104;2023-04-15T02:47:41;41.73;;;27.57;;
3121;SDS011;1571;52.524;14.104;2023-04-15T02:50:10;41.27;;;26.33;;
3121;SDS011;1571;52.524;14.104;2023-04-15T02:52:42;39.70;;;30.07;;
3121;SDS011;1571;52.524;14.104;2023-04-15T02:55:11;42.00;;;27.10;;
3121;SDS011;1571;52.524;14.104;2023-04-15T02:57:39;37.13;;;28.30;;
3121;SDS011;1571;52.524;14.104;2023-04-15T03:00:10;42.60;;;28.40;;
3121;SDS011;1571;52.524;14.104;2023-04-15T03:02:41;37.23;;;27.37;;
3121;SDS011;1571;52.524;14.104;2023-04-15T03:05:10;38.50;;;28.10;;
3121;SDS011;1571;52.524;14.104;2023-04-15T03:07:47;40.07;;;28.57;;
3121;SDS011;1571;52.524;14.104;2023-04-15T03:10:16;41.30;;;28.03;;
3121;SDS011;1571;52.524;14.104;2023-04-15T03:12:45;34.80;;;25.90;;
3121;SDS011;1571;52.524;14.104;2023-04-15T03:15:17;37.20;;;25.73;;
3121;SDS011;1571;52.524;14.104;2023-04-15T03:17:48;38.53;;;25.13;;
3121;SDS011;1571;52.524;14.104;2023-04-15T03:20:17;38.97;;;25.47;;
3121;SDS011;1571;52.524;14.104;2023-04-15T03:22:48;38.80;;;27.17;;
3121;SDS011;1571;52.524;14.104;2023-04-15T03:25:18;34.80;;;23.90;;
3121;SDS011;1571;52.524;14.104;2023-04-15T03:27:47;35.23;;;26.97;;
3121;SDS011;1571;52.524;14.104;2023-04-15T03:30:16;37.97;;;26.73;;
3121;SDS011;1571;52.524;14.104;2023-04-15T03:32:45;39.07;;;28.53;;
3121;SDS011;1571;52.524;14.104;2023-04-15T03:35:13;33.97;;;25.67;;
3121;SDS011;1571;52.524;14.104;2023-04-15T03:37:42;40.50;;;26.50;;
3121;SDS011;1571;52.524;14.104;2023-04-15T03:40:12;33.50;;;23.63;;
3121;SDS011;1571;52.524;14.104;2023-04-15T03:42:40;35.80;;;23.83;;
3121;SDS011;1571;52.524;14.104;2023-04-15T03:45:08;37.93;;;26.57;;
3121;SDS011;1571;52.524;14.104;2023-04-15T03:47:37;32.10;;;23.73;;
3121;SDS011;1571;52.524;14.104;2023-04-15T03:50:06;34.30;;;25.43;;
3121;SDS011;1571;52.524;14.104;2023-04-15T03:52:35;32.40;;;24.50;;
3121;SDS011;1571;52.524;14.104;2023-04-15T03:55:03;34.80;;;24.77;;
3121;SDS011;1571;52.524;14.104;2023-04-15T03:57:33;32.73;;;22.80;;
3121;SDS011;1571;52.524;14.104;2023-04-15T04:00:05;32.63;;;22.97;;
3121;SDS011;1571;52.524;14.104;2023-04-15T04:02:37;31.43;;;24.77;;
3121;SDS011;1571;52.524;14.104;2023-04-15T04:05:06;33.70;;;23.53;;
3121;SDS011;1571;52.524;14.104;2023-04-15T04:07:35;30.40;;;23.20;;
3121;SDS011;1571;52.524;14.104;2023-04-15T04:10:03;35.10;;;22.40;;
3121;SDS011;1571;52.524;14.104;2023-04-15T04:12:33;32.60;;;24.07;;
3121;SDS011;1571;52.524;14.104;2023-04-15T04:15:02;27.50;;;21.27;;
3121;SDS011;1571;52.524;14.104;2023-04-15T04:17:30;28.47;;;22.07;;
3121;SDS011;1571;52.524;14.104;2023-04-15T04:19:58;28.40;;;21.90;;
3121;SDS011;1571;52.524;14.104;2023-04-15T04:22:27;24.33;;;19.37;;
3121;SDS011;1571;52.524;14.104;2023-04-15T04:24:55;23.20;;;19.00;;
3121;SDS011;1571;52.524;14.104;2023-04-15T04:27:25;21.77;;;17.30;;
3121;SDS011;1571;52.524;14.104;2023-04-15T04:29:54;24.83;;;18.73;;
3121;SDS011;1571;52.524;14.104;2023-04-15T04:32:22;19.27;;;15.83;;
3121;SDS011;1571;52.524;14.104;2023-04-15T04:34:51;21.13;;;16.27;;
3121;SDS011;1571;52.524;14.104;2023-04-15T04:37:19;21.50;;;17.03;;
3121;SDS011;1571;52.524;14.104;2023-04-15T04:39:47;17.63;;;15.80;;
3121;SDS011;1571;52.524;14.104;2023-04-15T04:42:15;21.60;;;15.33;;
3121;SDS011;1571;52.524;14.104;2023-04-15T04:44:43;17.77;;;15.20;;
3121;SDS011;1571;52.524;14.104;2023-04-15T04:47:13;18.87;;;15.80;;
3121;SDS011;1571;52.524;14.104;2023-04-15T04:49:41;17.37;;;15.57;;
3121;SDS011;1571;52.524;14.104;2023-04-15T04:52:09;15.53;;;13.83;;
3121;SDS011;1571;52.524;14.104;2023-04-15T04:54:38;17.93;;;14.10;;
3121;SDS011;1571;52.524;14.104;2023-04-15T04:57:06;16.83;;;14.87;;
3121;SDS011;1571;52.524;14.104;2023-04-15T04:59:35;15.17;;;13.57;;
3121;SDS011;1571;52.524;14.104;2023-04-15T05:02:03;16.37;;;14.67;;
3121;SDS011;1571;52.524;14.104;2023-04-15T05:04:34;16.00;;;12.93;;
3121;SDS011;1571;52.524;14.104;2023-04-15T05:07:03;16.30;;;14.57;;
3121;SDS011;1571;52.524;14.104;2023-04-15T05:09:31;15.50;;;13.90;;
3121;SDS011;1571;52.524;14.104;2023-04-15T05:12:02;15.20;;;13.60;;
3121;SDS011;1571;52.524;14.104;2023-04-15T05:14:30;14.70;;;13.10;;
3121;SDS011;1571;52.524;14.104;2023-04-15T05:16:59;14.63;;;13.20;;
3121;SDS011;1571;52.524;14.104;2023-04-15T05:19:27;18.20;;;14.87;;
3121;SDS011;1571;52.524;14.104;2023-04-15T05:21:56;16.73;;;12.90;;
3121;SDS011;1571;52.524;14.104;2023-04-15T05:24:24;13.20;;;11.87;;
3121;SDS011;1571;52.524;14.104;2023-04-15T05:26:53;17.27;;;12.57;;
3121;SDS011;1571;52.524;14.104;2023-04-15T05:29:22;14.90;;;13.27;;
3121;SDS011;1571;52.524;14.104;2023-04-15T05:31:50;14.83;;;13.23;;
3121;SDS011;1571;52.524;14.104;2023-04-15T05:34:18;14.40;;;13.00;;
3121;SDS011;1571;52.524;14.104;2023-04-15T05:36:46;18.47;;;14.53;;
3121;SDS011;1571;52.524;14.104;2023-04-15T05:39:16;17.33;;;14.23;;
3121;SDS011;1571;52.524;14.104;2023-04-15T05:41:44;17.90;;;14.90;;
3121;SDS011;1571;52.524;14.104;2023-04-15T05:44:12;17.03;;;15.10;;
3121;SDS011;1571;52.524;14.104;2023-04-15T05:46:40;19.80;;;14.83;;
3121;SDS011;1571;52.524;14.104;2023-04-15T05:49:09;15.67;;;13.80;;
3121;SDS011;1571;52.524;14.104;2023-04-15T05:51:37;15.40;;;13.90;;
3121;SDS011;1571;52.524;14.104;2023-04-15T05:54:06;15.47;;;13.30;;
3121;SDS011;1571;52.524;14.104;2023-04-15T05:56:35;15.17;;;13.30;;
3121;SDS011;1571;52.524;14.104;2023-04-15T05:59:03;17.63;;;14.90;;
3121;SDS011;1571;52.524;14.104;2023-04-15T06:01:32;15.33;;;13.77;;
3121;SDS011;1571;52.524;14.104;2023-04-15T06:04:01;16.20;;;13.90;;
3121;SDS011;1571;52.524;14.104;2023-04-15T06:06:29;17.50;;;13.60;;
3121;SDS011;1571;52.524;14.104;2023-04-15T06:08:58;14.53;;;13.00;;
3121;SDS011;1571;52.524;14.104;2023-04-15T06:11:26;17.50;;;13.83;;
3121;SDS011;1571;52.524;14.104;2023-04-15T06:13:56;15.83;;;14.20;;
3121;SDS011;1571;52.524;14.104;2023-04-15T06:16:24;15.60;;;14.13;;
3121;SDS011;1571;52.524;14.104;2023-04-15T06:18:53;16.00;;;13.50;;
3121;SDS011;1571;52.524;14.104;2023-04-15T06:21:21;17.83;;;13.90;;
3121;SDS011;1571;52.524;14.104;2023-04-15T06:23:49;14.53;;;13.13;;
3121;SDS011;1571;52.524;14.104;2023-04-15T06:26:17;16.23;;;13.33;;
3121;SDS011;1571;52.524;14.104;2023-04-15T06:28:45;15.70;;;14.00;;
3121;SDS011;1571;52.524;14.104;2023-04-15T06:31:15;17.80;;;14.23;;
3121;SDS011;1571;52.524;14.104;2023-04-15T06:33:43;14.00;;;12.50;;
3121;SDS011;1571;52.524;14.104;2023-04-15T06:36:11;16.30;;;14.60;;
3121;SDS011;1571;52.524;14.104;2023-04-15T06:38:39;16.10;;;14.40;;
3121;SDS011;1571;52.524;14.104;2023-04-15T06:41:08;15.00;;;12.77;;
3121;SDS011;1571;52.524;14.104;2023-04-15T06:43:36;16.20;;;14.17;;
3121;SDS011;1571;52.524;14.104;2023-04-15T06:46:05;15.77;;;13.37;;
3121;SDS011;1571;52.524;14.104;2023-04-15T06:48:34;14.50;;;12.97;;
3121;SDS011;1571;52.524;14.104;2023-04-15T06:51:03;17.03;;;14.63;;
3121;SDS011;1571;52.524;14.104;2023-04-15T06:53:31;15.63;;;14.03;;
3121;SDS011;1571;52.524;14.104;2023-04-15T06:55:59;18.93;;;15.23;;
3121;SDS011;1571;52.524;14.104;2023-04-15T06:58:27;16.20;;;14.40;;
3121;SDS011;1571;52.524;14.104;2023-04-15T07:00:55;18.90;;;15.37;;
3121;SDS011;1571;52.524;14.104;2023-04-15T07:03:24;15.67;;;14.00;;
3121;SDS011;1571;52.524;14.104;2023-04-15T07:05:54;16.10;;;14.40;;
3121;SDS011;1571;52.524;14.104;2023-04-15T07:08:22;19.30;;;17.20;;
3121;SDS011;1571;52.524;14.104;2023-04-15T07:10:51;16.77;;;14.97;;
3121;SDS011;1571;52.524;14.104;2023-04-15T07:13:19;20.43;;;16.67;;
3121;SDS011;1571;52.524;14.104;2023-04-15T07:15:48;20.10;;;16.33;;
3121;SDS011;1571;52.524;14.104;2023-04-15T07:18:16;18.23;;;15.40;;
3121;SDS011;1571;52.524;14.104;2023-04-15T07:20:44;20.20;;;16.10;;
3121;SDS011;1571;52.524;14.104;2023-04-15T07:23:14;18.40;;;16.50;;
3121;SDS011;1571;52.524;14.104;2023-04-15T07:25:42;17.87;;;15.90;;
3121;SDS011;1571;52.524;14.104;2023-04-15T07:28:10;18.83;;;16.87;;
3121;SDS011;1571;52.524;14.104;2023-04-15T07:30:38;17.97;;;16.07;;
3121;SDS011;1571;52.524;14.104;2023-04-15T07:33:07;19.23;;;16.10;;
3121;SDS011;1571;52.524;14.104;2023-04-15T07:35:35;16.60;;;14.90;;
3121;SDS011;1571;52.524;14.104;2023-04-15T07:38:04;18.80;;;16.30;;
3121;SDS011;1571;52.524;14.104;2023-04-15T07:40:34;17.67;;;16.00;;
3121;SDS011;1571;52.524;14.104;2023-04-15T07:43:02;20.40;;;18.03;;
3121;SDS011;1571;52.524;14.104;2023-04-15T07:45:30;19.10;;;16.60;;
3121;SDS011;1571;52.524;14.104;2023-04-15T07:47:58;18.67;;;15.90;;
3121;SDS011;1571;52.524;14.104;2023-04-15T07:50:27;19.30;;;16.23;;
3121;SDS011;1571;52.524;14.104;2023-04-15T07:52:55;20.53;;;18.33;;
3121;SDS011;1571;52.524;14.104;2023-04-15T07:55:24;18.80;;;16.67;;
3121;SDS011;1571;52.524;14.104;2023-04-15T07:57:55;21.43;;;19.40;;
3121;SDS011;1571;52.524;14.104;2023-04-15T08:00:23;21.23;;;15.67;;
3121;SDS011;1571;52.524;14.104;2023-04-15T08:02:52;18.70;;;16.87;;
3121;SDS011;1571;52.524;14.104;2023-04-15T08:05:23;22.70;;;17.93;;
3121;SDS011;1571;52.524;14.104;2023-04-15T08:07:51;18.07;;;16.13;;
3121;SDS011;1571;52.524;14.104;2023-04-15T08:10:20;20.07;;;17.43;;
3121;SDS011;1571;52.524;14.104;2023-04-15T08:12:48;20.93;;;18.30;;
3121;SDS011;1571;52.524;14.104;2023-04-15T08:15:21;20.13;;;16.80;;
3121;SDS011;1571;52.524;14.104;2023-04-15T08:17:49;22.00;;;18.47;;
3121;SDS011;1571;52.524;14.104;2023-04-15T08:20:18;18.10;;;16.20;;
3121;SDS011;1571;52.524;14.104;2023-04-15T08:22:46;21.67;;;19.30;;
3121;SDS011;1571;52.524;14.104;2023-04-15T08:25:18;23.10;;;19.50;;
3121;SDS011;1571;52.524;14.104;2023-04-15T08:27:47;20.97;;;18.10;;
3121;SDS011;1571;52.524;14.104;2023-04-15T08:30:15;20.77;;;18.50;;
3121;SDS011;1571;52.524;14.104;2023-04-15T08:32:45;21.93;;;19.07;;
3121;SDS011;1571;52.524;14.104;2023-04-15T08:35:14;21.83;;;19.43;;
3121;SDS011;1571;52.524;14.104;2023-04-15T08:37:42;22.07;;;19.23;;
3121;SDS011;1571;52.524;14.104;2023-04-15T08:40:10;19.70;;;17.80;;
3121;SDS011;1571;52.524;14.104;2023-04-15T08:42:40;19.40;;;17.47;;
3121;SDS011;1571;52.524;14.104;2023-04-15T08:45:11;23.97;;;20.03;;
3121;SDS011;1571;52.524;14.104;2023-04-15T08:47:40;21.77;;;19.60;;
3121;SDS011;1571;52.524;14.104;2023-04-15T08:50:11;22.13;;;19.47;;
3121;SDS011;1571;52.524;14.104;2023-04-15T08:52:41;21.50;;;19.20;;
3121;SDS011;1571;52.524;14.104;2023-04-15T08:55:10;20.47;;;18.37;;
3121;SDS011;1571;52.524;14.104;2023-04-15T08:57:40;21.13;;;18.83;;
3121;SDS011;1571;52.524;14.104;2023-04-15T09:00:08;19.33;;;17.47;;
3121;SDS011;1571;52.524;14.104;2023-04-15T09:02:38;20.80;;;18.80;;
3121;SDS011;1571;52.524;14.104;2023-04-15T09:05:07;20.80;;;18.60;;
3121;SDS011;1571;52.524;14.104;2023-04-15T09:07:37;19.13;;;16.77;;
3121;SDS011;1571;52.524;14.104;2023-04-15T09:10:05;19.10;;;16.93;;
3121;SDS011;1571;52.524;14.104;2023-04-15T09:12:34;20.70;;;18.60;;
3121;SDS011;1571;52.524;14.104;2023-04-15T09:15:03;19.90;;;17.90;;
3121;SDS011;1571;52.524;14.104;2023-04-15T09:17:32;20.10;;;18.00;;
3121;SDS011;1571;52.524;14.104;2023-04-15T09:20:08;20.13;;;18.20;;
3121;SDS011;1571;52.524;14.104;2023-04-15T09:22:40;19.43;;;17.37;;
3121;SDS011;1571;52.524;14.104;2023-04-15T09:25:24;19.57;;;17.57;;
3121;SDS011;1571;52.524;14.104;2023-04-15T09:27:54;19.77;;;17.60;;
3121;SDS011;1571;52.524;14.104;2023-04-15T09:30:23;20.90;;;17.40;;
3121;SDS011;1571;52.524;14.104;2023-04-15T09:32:52;18.53;;;16.70;;
3121;SDS011;1571;52.524;14.104;2023-04-15T09:35:22;17.80;;;15.90;;
3121;SDS011;1571;52.524;14.104;2023-04-15T09:37:53;20.50;;;18.30;;
3121;SDS011;1571;52.524;14.104;2023-04-15T09:40:29;19.17;;;16.80;;
3121;SDS011;1571;52.524;14.104;2023-04-15T09:42:58;20.00;;;17.67;;
3121;SDS011;1571;52.524;14.104;2023-04-15T09:45:27;18.57;;;16.70;;
3121;SDS011;1571;52.524;14.104;2023-04-15T09:47:56;18.27;;;16.30;;
3121;SDS011;1571;52.524;14.104;2023-04-15T09:50:26;18.23;;;16.10;;
3121;SDS011;1571;52.524;14.104;2023-04-15T09:52:56;18.00;;;16.20;;
3121;SDS011;1571;52.524;14.104;2023-04-15T09:55:25;18.67;;;16.90;;
3121;SDS011;1571;52.524;14.104;2023-04-15T09:57:53;20.03;;;17.97;;
3121;SDS011;1571;52.524;14.104;2023-04-15T10:00:21;19.63;;;17.63;;
3121;SDS011;1571;52.524;14.104;2023-04-15T10:02:49;19.07;;;17.17;;
3121;SDS011;1571;52.524;14.104;2023-04-15T10:05:19;19.13;;;17.17;;
3121;SDS011;1571;52.524;14.104;2023-04-15T10:07:49;25.40;;;18.07;;
3121;SDS011;1571;52.524;14.104;2023-04-15T10:10:18;18.33;;;16.33;;
3121;SDS011;1571;52.524;14.104;2023-04-15T10:12:47;19.23;;;16.00;;
3121;SDS011;1571;52.524;14.104;2023-04-15T10:15:16;20.60;;;16.50;;
3121;SDS011;1571;52.524;14.104;2023-04-15T10:17:45;19.03;;;17.20;;
3121;SDS011;1571;52.524;14.104;2023-04-15T10:20:17;20.57;;;18.63;;
3121;SDS011;1571;52.524;14.104;2023-04-15T10:22:46;18.30;;;16.40;;
3121;SDS011;1571;52.524;14.104;2023-04-15T10:25:15;20.10;;;15.37;;
3121;SDS011;1571;52.524;14.104;2023-04-15T10:27:45;16.20;;;14.70;;
3121;SDS011;1571;52.524;14.104;2023-04-15T10:30:15;17.13;;;15.30;;
3121;SDS011;1571;52.524;14.104;2023-04-15T10:32:44;19.23;;;17.23;;
3121;SDS011;1571;52.524;14.104;2023-04-15T10:35:13;18.33;;;16.53;;
3121;SDS011;1571;52.524;14.104;2023-04-15T10:37:42;17.97;;;16.23;;
3121;SDS011;1571;52.524;14.104;2023-04-15T10:40:22;16.50;;;15.00;;
3121;SDS011;1571;52.524;14.104;2023-04-15T10:42:54;18.03;;;15.93;;
3121;SDS011;1571;52.524;14.104;2023-04-15T10:45:24;16.70;;;14.63;;
3121;SDS011;1571;52.524;14.104;2023-04-15T10:47:54;16.47;;;14.90;;
3121;SDS011;1571;52.524;14.104;2023-04-15T10:50:26;18.47;;;15.27;;
3121;SDS011;1571;52.524;14.104;2023-04-15T10:52:55;15.97;;;14.47;;
3121;SDS011;1571;52.524;14.104;2023-04-15T10:55:24;16.20;;;14.60;;
3121;SDS011;1571;52.524;14.104;2023-04-15T10:57:57;16.63;;;14.87;;
3121;SDS011;1571;52.524;14.104;2023-04-15T11:00:27;17.17;;;15.47;;
3121;SDS011;1571;52.524;14.104;2023-04-15T11:02:57;16.70;;;15.00;;
3121;SDS011;1571;52.524;14.104;2023-04-15T11:08:19;16.03;;;14.20;;
3121;SDS011;1571;52.524;14.104;2023-04-15T11:11:20;17.60;;;15.90;;
3121;SDS011;1571;52.524;14.104;2023-04-15T11:13:50;15.50;;;14.00;;
3121;SDS011;1571;52.524;14.104;2023-04-15T11:16:20;17.57;;;15.97;;
3121;SDS011;1571;52.524;14.104;2023-04-15T11:18:52;19.17;;;17.00;;
3121;SDS011;1571;52.524;14.104;2023-04-15T11:21:23;16.33;;;14.73;;
3121;SDS011;1571;52.524;14.104;2023-04-15T11:23:52;17.17;;;15.37;;
3121;SDS011;1571;52.524;14.104;2023-04-15T11:26:24;15.50;;;14.00;;
3121;SDS011;1571;52.524;14.104;2023-04-15T11:28:55;16.00;;;14.00;;
3121;SDS011;1571;52.524;14.104;2023-04-15T11:31:25;14.90;;;13.20;;
3121;SDS011;1571;52.524;14.104;2023-04-15T11:33:56;17.90;;;14.93;;
3121;SDS011;1571;52.524;14.104;2023-04-15T11:36:26;16.03;;;14.33;;
3121;SDS011;1571;52.524;14.104;2023-04-15T11:38:56;15.20;;;13.60;;
3121;SDS011;1571;52.524;14.104;2023-04-15T11:41:25;16.50;;;14.80;;
3121;SDS011;1571;52.524;14.104;2023-04-15T11:43:55;17.57;;;14.07;;
3121;SDS011;1571;52.524;14.104;2023-04-15T11:46:27;16.17;;;14.47;;
3121;SDS011;1571;52.524;14.104;2023-04-15T11:48:57;14.87;;;13.47;;
3121;SDS011;1571;52.524;14.104;2023-04-15T11:51:26;15.53;;;13.83;;
3121;SDS011;1571;52.524;14.104;2023-04-15T11:53:59;15.60;;;14.00;;
3121;SDS011;1571;52.524;14.104;2023-04-15T11:56:27;14.27;;;12.77;;
3121;SDS011;1571;52.524;14.104;2023-04-15T11:58:57;21.30;;;16.40;;
3121;SDS011;1571;52.524;14.104;2023-04-15T12:01:32;15.73;;;14.23;;
3121;SDS011;1571;52.524;14.104;2023-04-15T12:04:01;14.57;;;13.27;;
3121;SDS011;1571;52.524;14.104;2023-04-15T12:06:31;17.07;;;15.47;;
3121;SDS011;1571;52.524;14.104;2023-04-15T12:09:03;15.53;;;13.97;;
3121;SDS011;1571;52.524;14.104;2023-04-15T12:11:39;16.20;;;14.50;;
3121;SDS011;1571;52.524;14.104;2023-04-15T12:14:11;15.80;;;14.20;;
3121;SDS011;1571;52.524;14.104;2023-04-15T12:16:43;15.33;;;13.37;;
3121;SDS011;1571;52.524;14.104;2023-04-15T12:19:16;17.50;;;15.70;;
3121;SDS011;1571;52.524;14.104;2023-04-15T12:21:49;14.40;;;12.87;;
3121;SDS011;1571;52.524;14.104;2023-04-15T12:24:19;15.03;;;13.60;;
3121;SDS011;1571;52.524;14.104;2023-04-15T12:26:49;15.13;;;13.63;;
3121;SDS011;1571;52.524;14.104;2023-04-15T12:29:25;13.67;;;12.37;;
3121;SDS011;1571;52.524;14.104;2023-04-15T12:31:55;13.43;;;12.07;;
3121;SDS011;1571;52.524;14.104;2023-04-15T12:34:25;13.80;;;12.40;;
3121;SDS011;1571;52.524;14.104;2023-04-15T12:36:55;14.07;;;12.50;;
3121;SDS011;1571;52.524;14.104;2023-04-15T12:39:27;15.93;;;14.43;;
3121;SDS011;1571;52.524;14.104;2023-04-15T12:41:57;15.40;;;13.90;;
3121;SDS011;1571;52.524;14.104;2023-04-15T12:44:27;13.90;;;12.73;;
3121;SDS011;1571;52.524;14.104;2023-04-15T12:46:56;13.43;;;12.13;;
3121;SDS011;1571;52.524;14.104;2023-04-15T12:49:25;13.63;;;12.33;;
3121;SDS011;1571;52.524;14.104;2023-04-15T12:51:54;16.63;;;15.13;;
3121;SDS011;1571;52.524;14.104;2023-04-15T12:54:23;13.43;;;12.13;;
3121;SDS011;1571;52.524;14.104;2023-04-15T12:56:51;13.93;;;12.63;;
3121;SDS011;1571;52.524;14.104;2023-04-15T12:59:20;13.27;;;12.07;;
3121;SDS011;1571;52.524;14.104;2023-04-15T13:01:51;13.53;;;12.23;;
3121;SDS011;1571;52.524;14.104;2023-04-15T13:04:20;13.73;;;12.53;;
3121;SDS011;1571;52.524;14.104;2023-04-15T13:06:49;14.70;;;13.27;;
3121;SDS011;1571;52.524;14.104;2023-04-15T13:09:17;12.20;;;11.10;;
3121;SDS011;1571;52.524;14.104;2023-04-15T13:11:45;10.90;;;9.80;;
3121;SDS011;1571;52.524;14.104;2023-04-15T13:14:13;11.97;;;10.90;;
3121;SDS011;1571;52.524;14.104;2023-04-15T13:16:42;13.23;;;11.93;;
3121;SDS011;1571;52.524;14.104;2023-04-15T13:19:11;12.20;;;11.10;;
3121;SDS011;1571;52.524;14.104;2023-04-15T13:21:40;14.20;;;13.00;;
3121;SDS011;1571;52.524;14.104;2023-04-15T13:24:09;12.33;;;11.13;;
3121;SDS011;1571;52.524;14.104;2023-04-15T13:26:37;13.17;;;11.97;;
3121;SDS011;1571;52.524;14.104;2023-04-15T13:29:05;12.33;;;11.30;;
3121;SDS011;1571;52.524;14.104;2023-04-15T13:31:33;12.87;;;11.57;;
3121;SDS011;1571;52.524;14.104;2023-04-15T13:34:02;11.27;;;10.23;;
3121;SDS011;1571;52.524;14.104;2023-04-15T13:36:32;12.40;;;11.30;;
3121;SDS011;1571;52.524;14.104;2023-04-15T13:39:00;11.47;;;10.47;;
3121;SDS011;1571;52.524;14.104;2023-04-15T13:41:29;11.40;;;10.20;;
3121;SDS011;1571;52.524;14.104;2023-04-15T13:43:58;12.53;;;10.77;;
3121;SDS011;1571;52.524;14.104;2023-04-15T13:46:26;10.10;;;9.20;;
3121;SDS011;1571;52.524;14.104;2023-04-15T13:48:54;10.00;;;9.10;;
3121;SDS011;1571;52.524;14.104;2023-04-15T13:51:23;11.27;;;10.27;;
3121;SDS011;1571;52.524;14.104;2023-04-15T13:53:56;10.17;;;9.23;;
3121;SDS011;1571;52.524;14.104;2023-04-15T13:56:25;9.47;;;8.57;;
3121;SDS011;1571;52.524;14.104;2023-04-15T13:58:53;9.43;;;8.60;;
3121;SDS011;1571;52.524;14.104;2023-04-15T14:01:24;10.20;;;9.30;;
3121;SDS011;1571;52.524;14.104;2023-04-15T14:03:53;8.70;;;7.90;;
3121;SDS011;1571;52.524;14.104;2023-04-15T14:06:21;8.67;;;7.97;;
3121;SDS011;1571;52.524;14.104;2023-04-15T14:08:49;9.40;;;8.57;;
3121;SDS011;1571;52.524;14.104;2023-04-15T14:11:20;9.23;;;8.43;;
3121;SDS011;1571;52.524;14.104;2023-04-15T14:13:48;7.90;;;7.30;;
3121;SDS011;1571;52.524;14.104;2023-04-15T14:16:16;8.47;;;7.77;;
3121;SDS011;1571;52.524;14.104;2023-04-15T14:18:44;8.27;;;7.63;;
3121;SDS011;1571;52.524;14.104;2023-04-15T14:21:12;9.20;;;8.30;;
3121;SDS011;1571;52.524;14.104;2023-04-15T14:23:41;7.73;;;6.93;;
3121;SDS011;1571;52.524;14.104;2023-04-15T14:26:09;9.90;;;8.50;;
3121;SDS011;1571;52.524;14.104;2023-04-15T14:28:39;8.37;;;7.67;;
3121;SDS011;1571;52.524;14.104;2023-04-15T14:31:08;7.50;;;6.90;;
3121;SDS011;1571;52.524;14.104;2023-04-15T14:33:36;8.33;;;7.63;;
3121;SDS011;1571;52.524;14.104;2023-04-15T14:36:05;7.50;;;6.80;;
3121;SDS011;1571;52.524;14.104;2023-04-15T14:38:33;7.33;;;6.80;;
3121;SDS011;1571;52.524;14.104;2023-04-15T14:41:04;9.97;;;9.03;;
3121;SDS011;1571;52.524;14.104;2023-04-15T14:43:33;8.00;;;7.40;;
3121;SDS011;1571;52.524;14.104;2023-04-15T14:46:03;9.43;;;8.53;;
3121;SDS011;1571;52.524;14.104;2023-04-15T14:48:31;9.10;;;8.30;;
3121;SDS011;1571;52.524;14.104;2023-04-15T14:50:59;8.53;;;7.73;;